Flugplatz Hahn (EDFH)

Hier findest Du alle Informationen zum Flugplatz Hahn (EDFH).

Informationen für Piloten zum Flugplatz Hahn

Hier findest Du alle relevanten Informationen, die Du als Pilot benötigst, um Hahn anzufliegen.

Flugplatz: Hahn ICAO-Code: EDFH
Frequenz Turm: 119,650 Mhz GAFOR Gebiet: 41
Frequenz Ground: 119,650 Mhz Mogas: nein
Platzrunde: - Landegebühr: -
Platzhöhe: - Sunrise: 07:17 Uhr UTC
Pisten: 03/21 - 2.745 m x , ASPH Sunset: 16:06 Uhr UTC

Mitglieder, die in Hahn fliegen

Flugwetter am Flugplatz Hahn

Die METAR Information stammen aus EDFH.

METAR Code:
2020/01/17 21:20
EDFH 172120Z 27011KT 9999 FEW012 04/03 Q1019

Temperatur: -0,7 °C Niederschlag: - Wind: 6,0 kt
Temperatur (min.): -3,3 °C Luftdruck: 1042 hPa Windrichtung: 80 °
Temperatur (max.): 1,7 °C Luftfeuchtigkeit: 86 % Bewölkung: -

Flugschulen am Flugplatz Hahn

Am Flugplatz Hahn gibt es leider keine Flugschule.

Benachbarte Flugplätze und Flugschulen

Es gibt 19 weitere Flugplätze in einem Umkreis von 50 km um den Flugplatz Hahn.

Jetzt anmelden

Passwort vergessen

Umfrage Archiv

Lasst Ihr Euch bei Überlandflügen von FIS begleiten?

Ja, immer!
43.6 %
Ja, unregelmäßig!
28.2 %
Ja, aber nur selten!
18.8 %
Nein, nie!
9.4 %
Stimmen: 149 | Diskussion
Anzeige: Roland Aircraft
Statistik Alle Mitglieder

Aktuell sind 27 Besucher online, davon 2 Mitglieder und 25 Gäste.


Mitglieder online:
Der Leichtflieger  Brutus 

Anzeige: VFR Sprechfunk Simulator


Anzeige: Pocket FMS